Time,TemperatureF,DewpointF,PressureIn,WindDirection,WindDirectionDegrees,WindSpeedMPH,WindSpeedGustMPH,Humidity,HourlyPrecipIn,Conditions,Clouds,dailyrainin,SoftwareType,DateUTC
2013-07-09 00:13:00,80.7,74.0,30.19,ENE,68,6.0,7.0,81,0.00,,,0.00,weatherlink.com 1.10,2013-07-09 04:13:00,
2013-07-09 00:28:00,80.6,74.0,30.19,ENE,64,2.0,7.0,81,0.00,,,0.00,weatherlink.com 1.10,2013-07-09 04:28:00,
2013-07-09 00:43:00,80.4,74.0,30.19,NE,46,4.0,4.0,81,0.00,,,0.00,weatherlink.com 1.10,2013-07-09 04:43:00,
2013-07-09 00:58:00,80.5,75.0,30.19,NE,56,2.0,4.0,82,0.00,,,0.00,weatherlink.com 1.10,2013-07-09 04:58:00,
2013-07-09 01:13:00,80.4,75.0,30.19,ENE,69,3.0,5.0,82,0.00,,,0.00,weatherlink.com 1.10,2013-07-09 05:13:00,
2013-07-09 01:28:00,80.5,75.0,30.19,ENE,64,4.0,6.0,83,0.00,,,0.00,weatherlink.com 1.10,2013-07-09 05:28:00,
2013-07-09 01:43:00,80.7,74.0,30.18,ENE,68,3.0,6.0,81,0.00,,,0.00,weatherlink.com 1.10,2013-07-09 05:43:00,
2013-07-09 01:58:00,80.7,75.0,30.17,ENE,58,3.0,5.0,83,0.00,,,0.00,weatherlink.com 1.10,2013-07-09 05:58:00,
2013-07-09 02:13:00,80.5,75.0,30.17,ENE,57,2.0,4.0,84,0.00,,,0.00,weatherlink.com 1.10,2013-07-09 06:13:00,
2013-07-09 02:28:00,79.8,74.0,30.16,East,86,0.0,4.0,83,0.00,,,0.00,weatherlink.com 1.10,2013-07-09 06:28:00,
2013-07-09 02:43:00,79.8,75.0,30.15,ENE,67,3.0,6.0,85,0.00,,,0.00,weatherlink.com 1.10,2013-07-09 06:43:00,
2013-07-09 02:58:00,80.1,74.0,30.15,ESE,117,5.0,9.0,82,0.00,,,0.00,weatherlink.com 1.10,2013-07-09 06:58:00,
2013-07-09 03:13:00,79.0,74.0,30.15,East,99,3.0,5.0,84,0.00,,,0.00,weatherlink.com 1.10,2013-07-09 07:13:00,
2013-07-09 03:28:00,78.5,74.0,30.14,SE,129,1.0,4.0,85,0.00,,,0.00,weatherlink.com 1.10,2013-07-09 07:28:00,
2013-07-09 03:43:00,78.4,73.0,30.14,SE,146,1.0,2.0,84,0.00,,,0.00,weatherlink.com 1.10,2013-07-09 07:43:00,
2013-07-09 03:58:00,78.2,73.0,30.13,ESE,113,0.0,1.0,85,0.00,,,0.00,weatherlink.com 1.10,2013-07-09 07:58:00,
2013-07-09 04:13:00,78.5,74.0,30.13,ESE,119,1.0,3.0,85,0.00,,,0.00,weatherlink.com 1.10,2013-07-09 08:13:00,
2013-07-09 04:28:00,78.5,73.0,30.13,ESE,109,3.0,5.0,84,0.00,,,0.00,weatherlink.com 1.10,2013-07-09 08:28:00,
2013-07-09 04:43:00,78.9,73.0,30.13,ESE,107,0.0,3.0,81,0.00,,,0.00,weatherlink.com 1.10,2013-07-09 08:43:00,
2013-07-09 04:58:00,79.0,73.0,30.14,NE,53,4.0,4.0,82,0.00,,,0.00,weatherlink.com 1.10,2013-07-09 08:58:00,
2013-07-09 05:13:00,79.3,73.0,30.14,ENE,71,3.0,4.0,81,0.00,,,0.00,weatherlink.com 1.10,2013-07-09 09:13:00,
2013-07-09 05:28:00,79.4,73.0,30.14,East,92,0.0,3.0,81,0.00,,,0.00,weatherlink.com 1.10,2013-07-09 09:28:00,
2013-07-09 05:43:00,79.4,74.0,30.14,East,99,4.0,4.0,82,0.00,,,0.00,weatherlink.com 1.10,2013-07-09 09:43:00,
2013-07-09 05:58:00,79.2,73.0,30.14,ENE,68,2.0,4.0,81,0.00,,,0.00,weatherlink.com 1.10,2013-07-09 09:58:00,
2013-07-09 06:13:00,79.2,73.0,30.15,East,92,3.0,4.0,80,0.01,,,0.01,weatherlink.com 1.10,2013-07-09 10:13:00,
2013-07-09 06:28:00,79.2,73.0,30.14,ENE,75,0.0,1.0,80,0.01,,,0.01,weatherlink.com 1.10,2013-07-09 10:28:00,
2013-07-09 06:43:00,79.1,72.0,30.14,ENE,78,0.0,0.0,80,0.02,,,0.02,weatherlink.com 1.10,2013-07-09 10:43:00,
2013-07-09 06:58:00,79.3,73.0,30.15,NE,43,0.0,0.0,82,0.02,,,0.02,weatherlink.com 1.10,2013-07-09 10:58:00,
2013-07-09 07:13:00,79.3,73.0,30.16,NE,44,0.0,0.0,82,0.01,,,0.02,weatherlink.com 1.10,2013-07-09 11:13:00,
2013-07-09 07:28:00,79.6,74.0,30.16,NE,43,0.0,0.0,83,0.01,,,0.02,weatherlink.com 1.10,2013-07-09 11:28:00,
2013-07-09 07:43:00,80.0,74.0,30.16,NE,53,0.0,0.0,83,0.00,,,0.02,weatherlink.com 1.10,2013-07-09 11:43:00,
2013-07-09 07:58:00,81.0,74.0,30.16,ENE,72,2.0,4.0,79,0.00,,,0.02,weatherlink.com 1.10,2013-07-09 11:58:00,
2013-07-09 08:13:00,82.1,74.0,30.17,NE,54,1.0,4.0,76,0.00,,,0.02,weatherlink.com 1.10,2013-07-09 12:13:00,
2013-07-09 08:28:00,83.6,75.0,30.16,ENE,72,3.0,5.0,74,0.00,,,0.02,weatherlink.com 1.10,2013-07-09 12:28:00,
2013-07-09 08:43:00,83.0,74.0,30.16,East,85,6.0,7.0,73,0.00,,,0.02,weatherlink.com 1.10,2013-07-09 12:43:00,
2013-07-09 08:58:00,82.8,73.0,30.17,NE,51,1.0,8.0,73,0.00,,,0.02,weatherlink.com 1.10,2013-07-09 12:58:00,
2013-07-09 09:13:00,83.1,74.0,30.17,ENE,71,3.0,7.0,73,0.00,,,0.02,weatherlink.com 1.10,2013-07-09 13:13:00,
2013-07-09 09:28:00,83.1,74.0,30.17,NE,56,4.0,6.0,74,0.00,,,0.02,weatherlink.com 1.10,2013-07-09 13:28:00,
2013-07-09 09:43:00,83.6,74.0,30.18,NE,40,3.0,6.0,72,0.00,,,0.02,weatherlink.com 1.10,2013-07-09 13:43:00,
2013-07-09 09:58:00,82.4,74.0,30.18,NE,56,5.0,7.0,75,0.00,,,0.02,weatherlink.com 1.10,2013-07-09 13:58:00,
2013-07-09 10:13:00,81.8,74.0,30.19,ENE,61,6.0,8.0,77,0.00,,,0.02,weatherlink.com 1.10,2013-07-09 14:13:00,
2013-07-09 10:29:00,81.7,74.0,30.20,ENE,61,2.0,6.0,78,0.00,,,0.02,weatherlink.com 1.10,2013-07-09 14:29:00,
2013-07-09 10:44:00,82.0,75.0,30.19,NNE,33,4.0,7.0,79,0.00,,,0.02,weatherlink.com 1.10,2013-07-09 14:44:00,
2013-07-09 10:59:00,82.3,75.0,30.20,ENE,65,5.0,8.0,78,0.00,,,0.02,weatherlink.com 1.10,2013-07-09 14:59:00,
2013-07-09 11:14:00,76.9,71.0,30.21,ENE,62,11.0,21.0,82,0.06,,,0.08,weatherlink.com 1.10,2013-07-09 15:14:00,
2013-07-09 11:29:00,73.4,71.0,30.19,West,263,5.0,7.0,92,0.45,,,0.47,weatherlink.com 1.10,2013-07-09 15:29:00,
2013-07-09 11:44:00,77.3,74.0,30.20,NNW,337,1.0,8.0,89,0.47,,,0.49,weatherlink.com 1.10,2013-07-09 15:44:00,
2013-07-09 11:59:00,79.9,75.0,30.19,WNW,288,1.0,2.0,86,0.47,,,0.49,weatherlink.com 1.10,2013-07-09 15:59:00,
2013-07-09 12:14:00,80.6,75.0,30.19,WSW,245,4.0,7.0,82,0.36,,,0.49,weatherlink.com 1.10,2013-07-09 16:14:00,
2013-07-09 12:29:00,80.4,75.0,30.19,WNW,298,1.0,2.0,84,0.01,,,0.49,weatherlink.com 1.10,2013-07-09 16:29:00,
2013-07-09 12:44:00,81.2,76.0,30.19,West,280,1.0,9.0,83,0.00,,,0.49,weatherlink.com 1.10,2013-07-09 16:44:00,
2013-07-09 12:59:00,77.1,73.0,30.18,WSW,257,7.0,11.0,88,0.09,,,0.58,weatherlink.com 1.10,2013-07-09 16:59:00,
2013-07-09 13:14:00,77.5,76.0,30.18,NW,323,0.0,4.0,94,0.09,,,0.58,weatherlink.com 1.10,2013-07-09 17:14:00,
2013-07-09 13:29:00,78.5,75.0,30.18,NW,315,1.0,6.0,90,0.09,,,0.58,weatherlink.com 1.10,2013-07-09 17:29:00,
2013-07-09 13:44:00,80.3,76.0,30.18,North,354,0.0,3.0,86,0.09,,,0.58,weatherlink.com 1.10,2013-07-09 17:44:00,
2013-07-09 13:59:00,81.7,76.0,30.18,WNW,298,1.0,6.0,82,0.00,,,0.58,weatherlink.com 1.10,2013-07-09 17:59:00,
2013-07-09 14:14:00,82.9,75.0,30.17,NE,43,2.0,7.0,78,0.00,,,0.58,weatherlink.com 1.10,2013-07-09 18:14:00,
2013-07-09 14:29:00,83.2,73.0,30.17,NNE,33,4.0,7.0,71,0.00,,,0.58,weatherlink.com 1.10,2013-07-09 18:29:00,
2013-07-09 14:44:00,83.3,73.0,30.17,NNE,26,2.0,7.0,72,0.00,,,0.58,weatherlink.com 1.10,2013-07-09 18:44:00,
2013-07-09 14:59:00,83.5,74.0,30.16,NE,55,5.0,7.0,72,0.00,,,0.58,weatherlink.com 1.10,2013-07-09 18:59:00,
2013-07-09 15:14:00,83.1,73.0,30.15,NNW,340,1.0,7.0,72,0.00,,,0.58,weatherlink.com 1.10,2013-07-09 19:14:00,
2013-07-09 15:29:00,83.4,75.0,30.15,East,79,5.0,6.0,75,0.00,,,0.58,weatherlink.com 1.10,2013-07-09 19:29:00,
2013-07-09 15:44:00,82.7,73.0,30.15,East,85,6.0,8.0,72,0.00,,,0.58,weatherlink.com 1.10,2013-07-09 19:44:00,
2013-07-09 15:59:00,78.3,74.0,30.15,ENE,60,4.0,14.0,86,0.02,,,0.60,weatherlink.com 1.10,2013-07-09 19:59:00,
2013-07-09 16:14:00,77.8,74.0,30.14,ENE,72,3.0,6.0,89,0.02,,,0.60,weatherlink.com 1.10,2013-07-09 20:14:00,
2013-07-09 16:29:00,79.3,75.0,30.14,NE,37,3.0,8.0,85,0.02,,,0.60,weatherlink.com 1.10,2013-07-09 20:29:00,
2013-07-09 16:44:00,80.9,75.0,30.14,NNE,30,3.0,9.0,82,0.02,,,0.60,weatherlink.com 1.10,2013-07-09 20:44:00,
2013-07-09 16:59:00,79.7,75.0,30.13,NNW,338,1.0,10.0,85,0.00,,,0.60,weatherlink.com 1.10,2013-07-09 20:59:00,
2013-07-09 17:14:00,80.0,73.0,30.13,NE,47,4.0,7.0,80,0.00,,,0.60,weatherlink.com 1.10,2013-07-09 21:14:00,
2013-07-09 17:29:00,81.7,73.0,30.13,NE,41,4.0,7.0,76,0.00,,,0.60,weatherlink.com 1.10,2013-07-09 21:29:00,
2013-07-09 17:44:00,81.7,73.0,30.13,ENE,77,5.0,10.0,74,0.00,,,0.60,weatherlink.com 1.10,2013-07-09 21:44:00,
2013-07-09 17:59:00,81.9,73.0,30.12,NNW,328,0.0,7.0,75,0.00,,,0.60,weatherlink.com 1.10,2013-07-09 21:59:00,
2013-07-09 18:14:00,81.6,73.0,30.11,ENE,64,3.0,7.0,76,0.00,,,0.60,weatherlink.com 1.10,2013-07-09 22:14:00,
2013-07-09 18:29:00,81.2,74.0,30.11,NE,49,3.0,8.0,78,0.00,,,0.60,weatherlink.com 1.10,2013-07-09 22:29:00,
2013-07-09 18:44:00,80.8,74.0,30.11,NE,47,4.0,7.0,79,0.00,,,0.60,weatherlink.com 1.10,2013-07-09 22:44:00,
2013-07-09 18:59:00,80.8,74.0,30.10,ENE,65,2.0,8.0,80,0.00,,,0.60,weatherlink.com 1.10,2013-07-09 22:59:00,
2013-07-09 19:14:00,80.9,74.0,30.10,NE,36,2.0,4.0,80,0.00,,,0.60,weatherlink.com 1.10,2013-07-09 23:14:00,
2013-07-09 19:29:00,80.6,74.0,30.11,ENE,69,4.0,6.0,81,0.00,,,0.60,weatherlink.com 1.10,2013-07-09 23:29:00,
2013-07-09 19:44:00,80.4,75.0,30.11,NE,36,0.0,4.0,83,0.00,,,0.60,weatherlink.com 1.10,2013-07-09 23:44:00,
2013-07-09 19:59:00,80.2,75.0,30.11,NE,47,2.0,5.0,84,0.00,,,0.60,weatherlink.com 1.10,2013-07-09 23:59:00,
2013-07-09 20:14:00,79.8,75.0,30.11,NNE,29,0.0,3.0,85,0.00,,,0.60,weatherlink.com 1.10,2013-07-10 00:14:00,
2013-07-09 20:29:00,79.6,75.0,30.12,NE,40,1.0,4.0,86,0.00,,,0.60,weatherlink.com 1.10,2013-07-10 00:29:00,
2013-07-09 20:44:00,79.6,75.0,30.12,East,79,2.0,3.0,86,0.00,,,0.60,weatherlink.com 1.10,2013-07-10 00:44:00,
2013-07-09 20:59:00,79.7,73.0,30.12,ENE,70,4.0,6.0,81,0.00,,,0.60,weatherlink.com 1.10,2013-07-10 00:59:00,
2013-07-09 21:14:00,80.1,74.0,30.12,ENE,78,2.0,5.0,81,0.00,,,0.60,weatherlink.com 1.10,2013-07-10 01:14:00,
2013-07-09 21:29:00,80.2,74.0,30.12,ENE,71,4.0,5.0,81,0.00,,,0.60,weatherlink.com 1.10,2013-07-10 01:29:00,
2013-07-09 21:44:00,78.6,74.0,30.12,East,91,2.0,5.0,86,0.01,,,0.61,weatherlink.com 1.10,2013-07-10 01:44:00,
2013-07-09 21:59:00,79.4,75.0,30.13,East,89,9.0,11.0,86,0.01,,,0.61,weatherlink.com 1.10,2013-07-10 01:59:00,
2013-07-09 22:14:00,79.0,75.0,30.13,East,92,5.0,8.0,86,0.01,,,0.61,weatherlink.com 1.10,2013-07-10 02:14:00,
2013-07-09 22:29:00,78.9,74.0,30.14,East,93,1.0,6.0,84,0.01,,,0.61,weatherlink.com 1.10,2013-07-10 02:29:00,
2013-07-09 22:44:00,79.0,74.0,30.14,ESE,113,2.0,6.0,84,0.00,,,0.61,weatherlink.com 1.10,2013-07-10 02:44:00,
2013-07-09 22:59:00,79.0,74.0,30.14,East,99,1.0,3.0,85,0.00,,,0.61,weatherlink.com 1.10,2013-07-10 02:59:00,
2013-07-09 23:14:00,79.2,74.0,30.14,ESE,112,3.0,6.0,84,0.00,,,0.61,weatherlink.com 1.10,2013-07-10 03:14:00,
2013-07-09 23:29:00,79.3,74.0,30.14,ESE,115,3.0,7.0,84,0.00,,,0.61,weatherlink.com 1.10,2013-07-10 03:29:00,
2013-07-09 23:44:00,79.3,74.0,30.14,ESE,110,4.0,8.0,84,0.00,,,0.61,weatherlink.com 1.10,2013-07-10 03:44:00,
2013-07-09 23:59:00,79.1,73.0,30.14,ESE,113,4.0,6.0,82,0.00,,,0.61,weatherlink.com 1.10,2013-07-10 03:59:00,